createdAt,value
2024-01-05T00:01:38.682Z,22.00
2024-01-05T00:04:05.829Z,22.10
2024-01-05T00:06:32.967Z,22.30
2024-01-05T00:09:00.084Z,22.30
2024-01-05T00:11:27.008Z,22.40
2024-01-05T00:13:53.930Z,22.70
2024-01-05T00:16:21.816Z,22.40
2024-01-05T00:18:49.560Z,22.40
2024-01-05T00:21:29.208Z,22.70
2024-01-05T00:23:57.294Z,22.60
2024-01-05T00:26:24.450Z,22.60
2024-01-05T00:28:51.399Z,22.60
2024-01-05T00:31:19.019Z,22.60
2024-01-05T00:33:47.075Z,22.60
2024-01-05T00:36:14.345Z,22.50
2024-01-05T00:38:41.388Z,22.50
2024-01-05T00:41:08.312Z,22.80
2024-01-05T00:43:35.242Z,22.60
2024-01-05T00:46:02.448Z,22.70
2024-01-05T00:48:29.508Z,22.60
2024-01-05T00:50:56.521Z,22.40
2024-01-05T00:53:23.482Z,22.60
2024-01-05T00:55:50.372Z,22.50
2024-01-05T00:58:17.278Z,22.90
2024-01-05T01:00:44.320Z,22.90
2024-01-05T01:03:11.335Z,22.90
2024-01-05T01:05:38.325Z,23.20
2024-01-05T01:08:05.539Z,23.10
2024-01-05T01:10:32.492Z,23.20
2024-01-05T01:13:01.958Z,23.30
2024-01-05T01:15:29.041Z,23.20
2024-01-05T01:17:56.239Z,23.00
2024-01-05T01:20:23.317Z,23.20
2024-01-05T01:22:50.226Z,23.70
2024-01-05T01:25:17.545Z,23.60
2024-01-05T01:27:44.489Z,23.40
2024-01-05T01:30:11.877Z,23.50
2024-01-05T01:32:38.824Z,23.50
2024-01-05T01:35:05.909Z,23.40
2024-01-05T01:37:32.836Z,23.60
2024-01-05T01:39:59.838Z,23.50
2024-01-05T01:42:26.800Z,23.70
2024-01-05T01:44:53.839Z,23.90
2024-01-05T01:47:21.361Z,23.70
2024-01-05T01:49:48.512Z,23.60
2024-01-05T01:52:16.834Z,24.40
2024-01-05T01:54:44.291Z,23.70
2024-01-05T01:57:11.316Z,23.60
2024-01-05T01:59:38.428Z,23.70
2024-01-05T02:02:05.619Z,23.80
2024-01-05T02:04:34.791Z,23.70
2024-01-05T02:07:02.667Z,23.70
2024-01-05T02:09:30.425Z,23.40
2024-01-05T02:11:57.748Z,23.60
2024-01-05T02:14:24.678Z,23.70
2024-01-05T02:16:51.679Z,23.60
2024-01-05T02:19:18.773Z,23.60
2024-01-05T02:21:50.687Z,23.50
2024-01-05T02:24:18.086Z,23.60
2024-01-05T02:26:45.462Z,23.40
2024-01-05T02:29:12.740Z,23.20
2024-01-05T02:31:39.673Z,23.20
2024-01-05T02:34:06.700Z,23.50
2024-01-05T02:36:33.757Z,23.70
2024-01-05T02:39:00.761Z,23.60
2024-01-05T02:41:27.799Z,23.50
2024-01-05T02:43:54.819Z,23.50
2024-01-05T02:46:21.712Z,23.50
2024-01-05T02:48:48.778Z,23.80
2024-01-05T02:51:16.663Z,23.70
2024-01-05T02:53:43.675Z,23.80
2024-01-05T02:56:20.174Z,23.80
2024-01-05T02:58:47.290Z,23.80
2024-01-05T03:01:17.804Z,24.10
2024-01-05T03:03:50.756Z,24.10
2024-01-05T03:06:20.126Z,23.90
2024-01-05T03:08:47.867Z,24.00
2024-01-05T03:11:14.803Z,24.00
2024-01-05T03:13:41.735Z,24.70
2024-01-05T03:16:08.942Z,24.30
2024-01-05T03:18:36.070Z,24.40
2024-01-05T03:21:03.273Z,24.30
2024-01-05T03:23:30.219Z,24.30
2024-01-05T03:25:57.373Z,24.40
2024-01-05T03:28:24.304Z,24.50
2024-01-05T03:30:51.282Z,24.50
2024-01-05T03:33:21.305Z,24.60
2024-01-05T03:35:48.430Z,24.50
2024-01-05T03:38:15.355Z,24.20
2024-01-05T03:40:42.344Z,24.40
2024-01-05T03:43:09.249Z,24.50
2024-01-05T03:45:36.257Z,24.70
2024-01-05T03:48:03.501Z,24.80
2024-01-05T03:50:30.463Z,24.90
2024-01-05T03:52:57.591Z,25.00
2024-01-05T03:55:24.589Z,25.20
2024-01-05T03:57:51.475Z,25.30
2024-01-05T04:00:18.882Z,25.20
2024-01-05T04:02:45.990Z,25.10
2024-01-05T04:05:13.026Z,25.00
2024-01-05T04:07:39.982Z,25.00
2024-01-05T04:10:08.228Z,24.70
2024-01-05T04:12:35.159Z,25.20
2024-01-05T04:15:02.274Z,26.20
2024-01-05T04:17:29.224Z,25.20
2024-01-05T04:19:56.189Z,25.00
2024-01-05T04:22:23.263Z,25.10
2024-01-05T04:24:50.248Z,25.10
2024-01-05T04:27:17.188Z,24.90
2024-01-05T04:29:44.177Z,24.80
2024-01-05T04:32:11.115Z,25.00
2024-01-05T04:34:38.146Z,24.80
2024-01-05T04:37:05.230Z,25.00
2024-01-05T04:39:32.176Z,24.80
2024-01-05T04:41:59.135Z,24.60
2024-01-05T04:44:26.078Z,24.80
2024-01-05T04:46:53.246Z,25.00
2024-01-05T04:49:20.279Z,24.80
2024-01-05T04:51:47.622Z,24.90
2024-01-05T04:54:14.670Z,24.70
2024-01-05T04:56:41.677Z,24.80
2024-01-05T04:59:09.055Z,24.70
2024-01-05T05:01:35.953Z,24.80
2024-01-05T05:04:02.969Z,24.80
2024-01-05T05:06:30.003Z,24.80
2024-01-05T05:08:56.935Z,24.90
2024-01-05T05:11:24.032Z,25.30
2024-01-05T05:13:50.977Z,24.50
2024-01-05T05:16:17.836Z,24.50
2024-01-05T05:18:44.829Z,25.00
2024-01-05T05:21:11.906Z,24.80
2024-01-05T05:23:38.821Z,24.80
2024-01-05T05:26:06.882Z,25.00
2024-01-05T05:28:33.945Z,25.20
2024-01-05T05:31:01.568Z,25.20
2024-01-05T05:33:28.711Z,25.20
2024-01-05T05:35:55.672Z,25.00
2024-01-05T05:38:22.576Z,25.10
2024-01-05T05:40:49.648Z,25.20
2024-01-05T05:43:16.837Z,25.00
2024-01-05T05:45:43.826Z,25.10
2024-01-05T05:48:11.954Z,25.20
2024-01-05T05:50:38.934Z,25.20
2024-01-05T05:53:05.938Z,25.30
2024-01-05T05:55:32.834Z,25.40
2024-01-05T05:58:01.393Z,25.80
2024-01-05T06:00:29.392Z,25.20
2024-01-05T06:02:56.366Z,25.30
2024-01-05T06:05:23.394Z,25.40
2024-01-05T06:07:50.377Z,25.20
2024-01-05T06:10:17.389Z,25.00
2024-01-05T06:12:44.349Z,24.90
2024-01-05T06:15:11.396Z,25.00
2024-01-05T06:17:38.454Z,25.10
2024-01-05T06:20:06.139Z,24.90
2024-01-05T06:22:33.087Z,24.90
2024-01-05T06:25:00.128Z,25.20
2024-01-05T06:27:33.000Z,25.20
2024-01-05T06:30:06.207Z,25.20
2024-01-05T06:32:33.270Z,25.10
2024-01-05T06:35:00.282Z,25.00
2024-01-05T06:37:27.176Z,25.00
2024-01-05T06:39:54.129Z,25.00
2024-01-05T06:42:21.309Z,25.00
2024-01-05T06:44:48.404Z,25.00
2024-01-05T06:47:15.554Z,25.00
2024-01-05T06:49:42.680Z,25.10
2024-01-05T06:52:09.725Z,25.20
2024-01-05T06:54:36.741Z,25.20
2024-01-05T06:57:04.037Z,25.30
2024-01-05T06:59:31.010Z,25.30
2024-01-05T07:01:58.229Z,25.40
2024-01-05T07:04:25.220Z,25.40
2024-01-05T07:06:52.154Z,25.40
2024-01-05T07:09:19.134Z,25.40
2024-01-05T07:11:46.294Z,25.50
2024-01-05T07:14:13.354Z,25.60
2024-01-05T07:16:40.295Z,25.60
2024-01-05T07:19:07.363Z,25.60
2024-01-05T07:21:39.285Z,25.50
2024-01-05T07:24:06.528Z,25.50
2024-01-05T07:26:33.428Z,25.40
2024-01-05T07:29:00.412Z,25.40
2024-01-05T07:31:27.394Z,25.50
2024-01-05T07:33:54.566Z,25.60
2024-01-05T07:36:21.602Z,25.50
2024-01-05T07:38:48.519Z,25.50
2024-01-05T07:41:18.786Z,25.30
2024-01-05T07:43:46.013Z,25.40
2024-01-05T07:46:12.915Z,25.50
2024-01-05T07:48:42.836Z,25.40
2024-01-05T07:51:10.444Z,25.40
2024-01-05T07:53:37.444Z,25.50
2024-01-05T07:56:04.859Z,25.60
2024-01-05T07:58:31.773Z,25.70
2024-01-05T08:00:59.065Z,25.70
2024-01-05T08:03:26.233Z,26.20
2024-01-05T08:05:53.273Z,25.80
2024-01-05T08:08:20.213Z,25.70
2024-01-05T08:10:47.130Z,25.70
2024-01-05T08:13:14.088Z,25.70
2024-01-05T08:15:41.153Z,25.60
2024-01-05T08:18:08.290Z,25.60
2024-01-05T08:20:35.575Z,25.60
2024-01-05T08:23:02.618Z,25.70
2024-01-05T08:25:29.532Z,25.50
2024-01-05T08:27:56.442Z,25.60
2024-01-05T08:30:23.568Z,25.60
2024-01-05T08:32:50.585Z,25.70
2024-01-05T08:35:17.611Z,25.60
2024-01-05T08:37:44.535Z,25.60
2024-01-05T08:40:11.824Z,25.60
2024-01-05T08:42:38.958Z,25.70
2024-01-05T08:45:06.373Z,25.70
2024-01-05T08:47:33.310Z,25.80
2024-01-05T08:50:00.399Z,25.70
2024-01-05T08:52:27.334Z,25.70
2024-01-05T08:54:54.212Z,25.80
2024-01-05T08:57:21.173Z,25.70
2024-01-05T08:59:48.182Z,25.70
2024-01-05T09:02:15.342Z,25.60
2024-01-05T09:04:42.605Z,25.90
2024-01-05T09:07:09.501Z,25.70
2024-01-05T09:09:36.431Z,25.80
2024-01-05T09:12:04.066Z,25.70
2024-01-05T09:14:31.215Z,25.70
2024-01-05T09:16:58.142Z,25.70
2024-01-05T09:19:26.145Z,25.70
2024-01-05T09:21:53.584Z,25.70
2024-01-05T09:24:20.534Z,25.80
2024-01-05T09:26:48.997Z,25.90
2024-01-05T09:29:15.952Z,25.60
2024-01-05T09:31:46.970Z,25.60
2024-01-05T09:34:14.610Z,25.70
2024-01-05T09:36:41.800Z,25.60
2024-01-05T09:39:09.436Z,25.70
2024-01-05T09:41:39.201Z,25.70
2024-01-05T09:44:06.723Z,25.70
2024-01-05T09:46:34.622Z,25.70
2024-01-05T09:49:03.048Z,25.70
2024-01-05T09:51:31.124Z,25.50
2024-01-05T09:53:58.406Z,25.50
2024-01-05T09:56:27.236Z,25.50
2024-01-05T09:58:55.343Z,25.20
2024-01-05T10:01:31.655Z,25.30
2024-01-05T10:04:02.972Z,25.30
2024-01-05T10:06:30.968Z,25.50
2024-01-05T10:09:01.705Z,25.50
2024-01-05T10:11:38.938Z,25.40
2024-01-05T10:14:08.040Z,24.90
2024-01-05T10:16:35.159Z,25.00
2024-01-05T10:19:15.380Z,25.00
2024-01-05T10:21:47.064Z,24.50
2024-01-05T10:24:25.716Z,24.70
2024-01-05T10:27:11.894Z,24.40
2024-01-05T10:29:40.767Z,24.30
2024-01-05T10:32:15.188Z,24.30
2024-01-05T10:34:50.812Z,24.30
2024-01-05T10:37:21.070Z,24.30
2024-01-05T10:39:53.221Z,24.10
2024-01-05T10:42:27.760Z,23.70
2024-01-05T10:44:59.941Z,23.80
2024-01-05T10:47:28.126Z,23.80
2024-01-05T10:49:56.202Z,23.80
2024-01-05T10:52:31.273Z,23.90
2024-01-05T10:54:59.550Z,24.00
2024-01-05T10:57:26.591Z,23.60
2024-01-05T10:59:54.364Z,23.70
2024-01-05T11:02:37.952Z,23.90
2024-01-05T11:05:08.786Z,23.70
2024-01-05T11:07:37.336Z,23.70
2024-01-05T11:10:23.354Z,24.00
2024-01-05T11:13:05.349Z,24.00
2024-01-05T11:15:59.088Z,23.90
2024-01-05T11:18:45.208Z,24.60
2024-01-05T11:21:17.812Z,24.70
2024-01-05T11:23:45.735Z,24.70
2024-01-05T11:26:35.710Z,25.10
2024-01-05T11:29:03.743Z,25.30
2024-01-05T11:31:54.309Z,25.40
2024-01-05T11:34:30.348Z,25.40
2024-01-05T11:36:57.625Z,25.30
2024-01-05T11:39:44.896Z,25.10
2024-01-05T11:42:28.411Z,24.70
2024-01-05T11:45:00.022Z,24.60
2024-01-05T11:47:46.810Z,24.60
2024-01-05T11:50:25.906Z,24.50
2024-01-05T11:53:16.838Z,24.70
2024-01-05T11:55:50.358Z,24.60
2024-01-05T11:58:31.041Z,24.70
2024-01-05T12:00:58.796Z,24.70
2024-01-05T12:03:26.247Z,24.60
2024-01-05T12:05:56.103Z,24.90
2024-01-05T12:08:24.014Z,24.40
2024-01-05T12:10:57.831Z,24.40
2024-01-05T12:13:26.724Z,24.40
2024-01-05T12:16:07.548Z,24.10
2024-01-05T12:18:43.085Z,23.90
2024-01-05T12:21:13.047Z,24.00
2024-01-05T12:23:40.106Z,24.10
2024-01-05T12:26:09.129Z,24.00
2024-01-05T12:28:38.126Z,24.20
2024-01-05T12:31:09.615Z,24.30
2024-01-05T12:33:41.309Z,24.40
2024-01-05T12:36:10.472Z,24.20
2024-01-05T12:38:37.966Z,24.10
2024-01-05T12:41:20.915Z,24.20
2024-01-05T12:43:51.161Z,24.30
2024-01-05T12:46:19.865Z,24.50
2024-01-05T12:48:47.105Z,24.80
2024-01-05T12:51:15.964Z,24.90
2024-01-05T12:53:42.949Z,24.90
2024-01-05T12:56:17.909Z,25.20
2024-01-05T12:58:45.927Z,26.10
2024-01-05T13:01:26.152Z,25.60
2024-01-05T13:03:55.888Z,25.90
2024-01-05T13:06:25.931Z,25.70
2024-01-05T13:08:53.365Z,25.80
2024-01-05T13:11:20.765Z,26.20
2024-01-05T13:13:48.281Z,26.50
2024-01-05T13:16:15.255Z,26.40
2024-01-05T13:18:42.688Z,26.20
2024-01-05T13:21:10.055Z,26.10
2024-01-05T13:23:37.097Z,26.00
2024-01-05T13:26:04.134Z,26.10
2024-01-05T13:28:33.879Z,25.70
2024-01-05T13:31:00.911Z,25.60
2024-01-05T13:33:27.966Z,25.50
2024-01-05T13:35:54.943Z,25.90
2024-01-05T13:38:21.847Z,26.00
2024-01-05T13:40:48.874Z,26.30
2024-01-05T13:43:15.882Z,26.10
2024-01-05T13:45:42.854Z,25.80
2024-01-05T13:48:09.917Z,25.70
2024-01-05T13:50:36.866Z,25.70
2024-01-05T13:53:03.919Z,25.50
2024-01-05T13:55:31.570Z,25.50
2024-01-05T13:57:58.517Z,25.60
2024-01-05T14:00:25.491Z,25.60
2024-01-05T14:02:52.539Z,25.40
2024-01-05T14:05:19.491Z,25.40
2024-01-05T14:07:46.474Z,25.40
2024-01-05T14:10:13.410Z,25.70
2024-01-05T14:12:40.372Z,26.00
2024-01-05T14:15:07.913Z,25.80
2024-01-05T14:17:35.004Z,26.00
2024-01-05T14:20:02.165Z,25.90
2024-01-05T14:22:29.209Z,25.90
2024-01-05T14:24:56.091Z,25.90
2024-01-05T14:27:23.112Z,25.90
2024-01-05T14:29:50.484Z,25.90
2024-01-05T14:32:17.423Z,25.80
2024-01-05T14:34:44.632Z,25.80
2024-01-05T14:37:11.693Z,25.80
2024-01-05T14:39:38.708Z,25.80
2024-01-05T14:42:05.848Z,26.40
2024-01-05T14:44:32.829Z,26.20
2024-01-05T14:46:59.840Z,26.10
2024-01-05T14:49:27.047Z,26.10
2024-01-05T14:51:54.006Z,26.10
2024-01-05T14:54:20.936Z,26.30
2024-01-05T14:56:47.854Z,26.50
2024-01-05T14:59:14.760Z,26.80
2024-01-05T15:01:41.746Z,27.10
2024-01-05T15:04:08.845Z,27.40
2024-01-05T15:06:35.915Z,27.60
2024-01-05T15:09:02.851Z,27.50
2024-01-05T15:11:29.770Z,27.40
2024-01-05T15:13:56.649Z,27.20
2024-01-05T15:16:23.538Z,27.30
2024-01-05T15:18:50.653Z,27.40
2024-01-05T15:21:25.368Z,28.00
2024-01-05T15:23:52.686Z,27.30
2024-01-05T15:26:19.742Z,27.20
2024-01-05T15:28:46.733Z,27.10
2024-01-05T15:31:21.660Z,27.30
2024-01-05T15:33:49.755Z,27.30
2024-01-05T15:36:17.876Z,27.30
2024-01-05T15:38:45.031Z,27.40
2024-01-05T15:41:12.868Z,27.50
2024-01-05T15:43:39.882Z,27.20
2024-01-05T15:46:06.840Z,27.00
2024-01-05T15:48:33.952Z,26.90
2024-01-05T15:51:01.019Z,27.00
2024-01-05T15:53:27.993Z,26.80
2024-01-05T15:55:58.939Z,26.90
2024-01-05T15:58:26.546Z,26.90
2024-01-05T16:00:53.538Z,26.90
2024-01-05T16:03:20.493Z,27.00
2024-01-05T16:05:47.531Z,26.70
2024-01-05T16:08:14.447Z,26.70
2024-01-05T16:10:41.361Z,26.70
2024-01-05T16:13:08.415Z,26.60
2024-01-05T16:15:35.340Z,26.60
2024-01-05T16:18:02.464Z,26.50
2024-01-05T16:20:29.394Z,26.40
2024-01-05T16:22:56.379Z,26.40
2024-01-05T16:25:23.275Z,26.20
2024-01-05T16:27:50.273Z,26.10
2024-01-05T16:30:17.416Z,26.30
2024-01-05T16:32:44.404Z,26.20
2024-01-05T16:35:11.550Z,25.80
2024-01-05T16:37:38.492Z,25.70
2024-01-05T16:40:07.156Z,25.80
2024-01-05T16:42:34.157Z,26.00
2024-01-05T16:45:01.176Z,26.00
2024-01-05T16:47:28.254Z,26.10
2024-01-05T16:49:55.312Z,26.10
2024-01-05T16:52:22.214Z,26.20
2024-01-05T16:54:49.376Z,26.20
2024-01-05T16:57:16.365Z,26.40
2024-01-05T16:59:43.286Z,26.30
2024-01-05T17:02:10.242Z,26.00
2024-01-05T17:04:37.325Z,26.80
2024-01-05T17:07:04.754Z,26.40
2024-01-05T17:09:31.884Z,26.50
2024-01-05T17:11:58.790Z,26.30
2024-01-05T17:14:25.692Z,26.30
2024-01-05T17:16:52.576Z,26.50
2024-01-05T17:19:19.688Z,26.50
2024-01-05T17:21:46.745Z,26.60
2024-01-05T17:24:13.809Z,26.90
2024-01-05T17:26:41.023Z,26.90
2024-01-05T17:29:08.259Z,27.10
2024-01-05T17:31:35.393Z,26.90
2024-01-05T17:34:03.082Z,26.70
2024-01-05T17:36:30.215Z,26.50
2024-01-05T17:38:57.971Z,26.40
2024-01-05T17:41:25.007Z,26.30
2024-01-05T17:43:51.908Z,26.60
2024-01-05T17:46:18.797Z,26.80
2024-01-05T17:48:46.021Z,27.20
2024-01-05T17:51:13.128Z,27.00
2024-01-05T17:53:40.149Z,26.90
2024-01-05T17:56:07.667Z,26.90
2024-01-05T17:58:34.522Z,27.00
2024-01-05T18:01:07.148Z,27.20
2024-01-05T18:03:36.589Z,27.30
2024-01-05T18:06:08.693Z,27.80
2024-01-05T18:08:35.656Z,28.20
2024-01-05T18:11:02.571Z,28.00
2024-01-05T18:13:29.477Z,28.20
2024-01-05T18:15:56.481Z,28.50
2024-01-05T18:20:50.407Z,28.40
2024-01-05T18:23:17.983Z,29.00
2024-01-05T18:25:45.077Z,28.50
2024-01-05T18:28:12.030Z,28.60
2024-01-05T18:30:39.055Z,28.30
2024-01-05T18:33:06.228Z,28.50
2024-01-05T18:35:33.212Z,28.70
2024-01-05T18:38:00.167Z,28.80
2024-01-05T18:40:27.058Z,29.10
2024-01-05T18:42:53.960Z,28.90
2024-01-05T18:45:20.942Z,28.60
2024-01-05T18:47:47.889Z,28.90
2024-01-05T18:50:14.877Z,29.10
2024-01-05T18:52:41.779Z,28.80
2024-01-05T18:55:08.818Z,28.70
2024-01-05T18:57:35.887Z,28.20
2024-01-05T19:00:02.958Z,28.00
2024-01-05T19:02:29.981Z,28.30
2024-01-05T19:04:56.924Z,28.20
2024-01-05T19:07:23.858Z,28.10
2024-01-05T19:09:51.284Z,28.30
2024-01-05T19:12:18.263Z,28.40
2024-01-05T19:14:45.157Z,28.40
2024-01-05T19:17:12.155Z,28.30
2024-01-05T19:19:39.401Z,28.40
2024-01-05T19:22:06.437Z,28.20
2024-01-05T19:24:33.461Z,28.40
2024-01-05T19:27:00.472Z,28.40
2024-01-05T19:29:27.378Z,28.20
2024-01-05T19:31:54.367Z,28.10
2024-01-05T19:34:21.419Z,28.00
2024-01-05T19:36:48.553Z,27.60
2024-01-05T19:39:15.633Z,27.50
2024-01-05T19:41:43.990Z,27.90
2024-01-05T19:44:11.536Z,28.30
2024-01-05T19:46:38.709Z,28.20
2024-01-05T19:49:05.688Z,28.00
2024-01-05T19:51:32.663Z,27.90
2024-01-05T19:53:59.622Z,27.60
2024-01-05T19:56:26.580Z,27.60
2024-01-05T19:58:53.595Z,27.50
2024-01-05T20:01:20.612Z,27.30
2024-01-05T20:03:47.725Z,27.20
2024-01-05T20:06:14.916Z,27.20
2024-01-05T20:08:41.986Z,27.10
2024-01-05T20:11:08.934Z,27.10
2024-01-05T20:13:35.849Z,27.30
2024-01-05T20:16:02.812Z,27.10
2024-01-05T20:18:29.893Z,27.20
2024-01-05T20:20:56.837Z,27.20
2024-01-05T20:23:23.747Z,27.10
2024-01-05T20:25:50.820Z,26.90
2024-01-05T20:28:17.760Z,26.70
2024-01-05T20:30:44.750Z,26.60
2024-01-05T20:33:11.843Z,26.50
2024-01-05T20:35:39.716Z,26.40
2024-01-05T20:38:06.601Z,26.50
2024-01-05T20:40:33.517Z,26.90
2024-01-05T20:43:00.515Z,26.40
2024-01-05T20:45:27.592Z,26.40
2024-01-05T20:47:54.647Z,26.30
2024-01-05T20:50:21.648Z,26.50
2024-01-05T20:52:48.629Z,26.60
2024-01-05T20:55:15.657Z,26.70
2024-01-05T20:57:42.632Z,27.00
2024-01-05T21:00:10.174Z,27.00
2024-01-05T21:02:37.277Z,27.00
2024-01-05T21:05:04.575Z,26.90
2024-01-05T21:07:31.534Z,27.10
2024-01-05T21:09:58.634Z,27.30
2024-01-05T21:12:25.634Z,27.30
2024-01-05T21:14:52.594Z,27.40
2024-01-05T21:17:19.609Z,27.30
2024-01-05T21:19:46.699Z,27.40
2024-01-05T21:22:13.725Z,27.30
2024-01-05T21:24:41.553Z,27.10
2024-01-05T21:27:08.675Z,26.90
2024-01-05T21:29:39.222Z,27.00
2024-01-05T21:32:06.501Z,27.10
2024-01-05T21:34:33.444Z,27.20
2024-01-05T21:37:00.365Z,27.30
2024-01-05T21:39:27.312Z,27.10
2024-01-05T21:41:54.249Z,27.00
2024-01-05T21:44:21.135Z,27.50
2024-01-05T21:46:48.048Z,27.10
2024-01-05T21:49:15.060Z,27.00
2024-01-05T21:51:42.206Z,27.30
2024-01-05T21:54:09.301Z,27.30
2024-01-05T21:56:36.226Z,27.20
2024-01-05T21:59:03.130Z,26.90
2024-01-05T22:01:30.108Z,26.70
2024-01-05T22:03:57.091Z,26.80
2024-01-05T22:06:24.111Z,26.60
2024-01-05T22:08:51.078Z,26.50
2024-01-05T22:11:17.971Z,26.50
2024-01-05T22:13:45.052Z,26.40
2024-01-05T22:16:22.023Z,26.40
2024-01-05T22:18:50.201Z,26.80
2024-01-05T22:21:18.480Z,26.60
2024-01-05T22:23:45.524Z,26.60
2024-01-05T22:26:20.274Z,26.40
2024-01-05T22:28:47.180Z,26.30
2024-01-05T22:31:14.350Z,26.40
2024-01-05T22:33:42.938Z,26.30
2024-01-05T22:36:14.872Z,26.40
2024-01-05T22:38:42.236Z,26.30
2024-01-05T22:41:10.693Z,26.30
2024-01-05T22:43:38.795Z,26.20
2024-01-05T22:46:10.196Z,26.80
2024-01-05T22:48:37.644Z,26.30
2024-01-05T22:51:05.272Z,26.20
2024-01-05T22:53:33.002Z,26.40
2024-01-05T22:55:59.962Z,26.20
2024-01-05T22:58:27.064Z,25.90
2024-01-05T23:00:54.194Z,26.00
2024-01-05T23:03:21.316Z,25.90
2024-01-05T23:05:48.306Z,26.00
2024-01-05T23:08:15.224Z,26.30
2024-01-05T23:10:42.145Z,26.20
2024-01-05T23:13:09.031Z,26.30
2024-01-05T23:15:36.492Z,26.20
2024-01-05T23:18:03.858Z,26.10
2024-01-05T23:20:30.820Z,25.80
2024-01-05T23:22:57.783Z,25.90
2024-01-05T23:25:24.689Z,25.90
2024-01-05T23:27:51.692Z,26.30
2024-01-05T23:30:18.828Z,26.10
2024-01-05T23:32:45.961Z,26.30
2024-01-05T23:35:13.119Z,26.30
2024-01-05T23:37:40.127Z,26.20
2024-01-05T23:40:07.724Z,26.40
2024-01-05T23:42:34.723Z,26.60
2024-01-05T23:45:01.685Z,26.60
2024-01-05T23:47:28.727Z,26.50
2024-01-05T23:49:55.897Z,26.70
2024-01-05T23:52:22.974Z,27.00
2024-01-05T23:54:49.951Z,27.10
2024-01-05T23:57:16.955Z,27.50
2024-01-05T23:59:44.312Z,27.70
